Time;durP1;ratioP1;P1;durP2;ratioP2;P2;SDS_P1;SDS_P2;PMS_P1;PMS_P2;Temp;Humidity;BMP_temperature;BMP_pressure;BME280_temperature;BME280_humidity;BME280_pressure;Samples;Min_cycle;Max_cycle;Signal;HPM_P1;HPM_P2
2021/09/13 00:01:17;;;;;;;4.05;2.35;;;;;;;;;;5016718;28;20030;-45
2021/09/13 00:03:42;;;;;;;4.07;2.33;;;;;;;;;;5014776;28;20939;-45
2021/09/13 00:06:08;;;;;;;3.03;1.70;;;;;;;;;;5012033;28;20129;-47
2021/09/13 00:08:33;;;;;;;2.97;1.85;;;;;;;;;;5018437;28;20028;-46
2021/09/13 00:10:58;;;;;;;2.42;1.83;;;;;;;;;;5009046;28;20520;-44
2021/09/13 00:13:24;;;;;;;3.63;2.42;;;;;;;;;;5016958;28;20029;-45
2021/09/13 00:15:50;;;;;;;3.03;2.10;;;;;;;;;;5014350;28;20124;-46
2021/09/13 00:18:15;;;;;;;2.83;1.60;;;;;;;;;;5019050;28;20029;-47
2021/09/13 00:20:40;;;;;;;2.17;1.60;;;;;;;;;;5018042;28;20472;-45
2021/09/13 00:23:06;;;;;;;3.40;2.58;;;;;;;;;;5015316;28;20052;-50
2021/09/13 00:25:31;;;;;;;5.50;2.17;;;;;;;;;;5010604;28;20021;-45
2021/09/13 00:27:56;;;;;;;4.07;2.20;;;;;;;;;;5016786;28;20397;-50
2021/09/13 00:30:22;;;;;;;14.00;2.00;;;;;;;;;;5018362;28;20037;-49
2021/09/13 00:32:47;;;;;;;3.38;1.60;;;;;;;;;;5018542;28;20116;-45
2021/09/13 00:35:12;;;;;;;3.35;2.25;;;;;;;;;;5017671;28;20693;-45
2021/09/13 00:37:38;;;;;;;11.82;1.65;;;;;;;;;;5010885;28;20668;-47
2021/09/13 00:40:03;;;;;;;1.88;1.35;;;;;;;;;;5015548;28;20045;-47
2021/09/13 00:42:29;;;;;;;3.28;2.00;;;;;;;;;;5018428;28;20055;-46
2021/09/13 00:44:55;;;;;;;1.85;1.45;;;;;;;;;;5014820;28;20116;-47
2021/09/13 00:47:20;;;;;;;3.78;2.15;;;;;;;;;;5017331;28;20041;-45
2021/09/13 00:49:47;;;;;;;3.33;2.15;;;;;;;;;;5012883;28;20025;-47
2021/09/13 00:52:13;;;;;;;2.85;1.35;;;;;;;;;;5012641;28;20539;-46
2021/09/13 00:54:38;;;;;;;2.22;1.75;;;;;;;;;;5016449;28;20026;-45
2021/09/13 00:57:04;;;;;;;3.55;1.90;;;;;;;;;;5017416;28;20088;-49
2021/09/13 00:59:29;;;;;;;2.97;1.70;;;;;;;;;;5008073;28;20290;-49
2021/09/13 01:01:55;;;;;;;3.15;1.92;;;;;;;;;;5013787;28;20465;-50
2021/09/13 01:04:20;;;;;;;2.78;1.85;;;;;;;;;;5017054;28;20140;-48
2021/09/13 01:06:45;;;;;;;2.03;1.42;;;;;;;;;;5017720;28;20045;-47
2021/09/13 01:09:11;;;;;;;4.00;2.22;;;;;;;;;;5017671;28;20030;-49
2021/09/13 01:11:36;;;;;;;3.25;1.48;;;;;;;;;;5016356;28;20489;-48
2021/09/13 01:14:01;;;;;;;2.50;1.50;;;;;;;;;;5022787;28;20040;-48
2021/09/13 01:16:27;;;;;;;2.50;1.63;;;;;;;;;;5023218;28;20028;-50
2021/09/13 01:18:52;;;;;;;3.13;2.05;;;;;;;;;;5015782;28;20473;-48
2021/09/13 01:21:17;;;;;;;4.78;1.80;;;;;;;;;;5019776;28;20051;-49
2021/09/13 01:23:43;;;;;;;5.78;1.77;;;;;;;;;;5016406;28;20396;-49
2021/09/13 01:26:08;;;;;;;2.15;1.80;;;;;;;;;;5019222;28;20628;-48
2021/09/13 01:28:34;;;;;;;4.55;2.53;;;;;;;;;;5029083;28;20022;-45
2021/09/13 01:30:59;;;;;;;2.55;1.60;;;;;;;;;;5024031;28;20026;-48
2021/09/13 01:33:24;;;;;;;2.45;1.67;;;;;;;;;;5023750;28;20072;-50
2021/09/13 01:35:50;;;;;;;3.42;1.73;;;;;;;;;;5022852;28;20168;-50
2021/09/13 01:38:21;;;;;;;2.28;1.63;;;;;;;;;;5020963;28;20010;-50
2021/09/13 01:40:46;;;;;;;;;;;;;;;;;;5015755;28;20045;-47
2021/09/13 01:43:12;;;;;;;1.30;0.88;;;;;;;;;;5017361;28;19944;-48
2021/09/13 01:45:37;;;;;;;2.70;1.58;;;;;;;;;;5025302;28;20492;-47
2021/09/13 01:48:02;;;;;;;2.70;1.65;;;;;;;;;;5022208;28;20110;-47
2021/09/13 01:50:28;;;;;;;4.78;1.58;;;;;;;;;;5022620;28;20057;-47
2021/09/13 01:52:53;;;;;;;1.23;1.13;;;;;;;;;;5023924;28;20022;-45
2021/09/13 01:55:18;;;;;;;1.48;1.02;;;;;;;;;;5016428;28;20033;-46
2021/09/13 01:57:44;;;;;;;4.25;1.33;;;;;;;;;;5011592;28;20042;-47
2021/09/13 02:00:09;;;;;;;2.13;1.48;;;;;;;;;;5023588;28;20104;-50
2021/09/13 02:02:37;;;;;;;2.47;1.75;;;;;;;;;;5022384;28;20037;-50
2021/09/13 02:05:03;;;;;;;1.77;1.23;;;;;;;;;;5025277;28;20049;-47
2021/09/13 02:07:28;;;;;;;1.77;0.98;;;;;;;;;;5023017;28;20478;-45
2021/09/13 02:09:53;;;;;;;3.20;1.52;;;;;;;;;;5023271;28;20029;-46
2021/09/13 02:12:20;;;;;;;1.90;1.23;;;;;;;;;;5021981;28;20022;-46
2021/09/13 02:14:45;;;;;;;1.67;1.55;;;;;;;;;;5026216;28;20116;-49
2021/09/13 02:17:14;;;;;;;2.20;1.58;;;;;;;;;;5023037;28;20431;-48
2021/09/13 02:19:39;;;;;;;3.05;1.75;;;;;;;;;;5020722;28;20427;-47
2021/09/13 02:22:04;;;;;;;6.22;1.52;;;;;;;;;;5014664;28;20561;-46
2021/09/13 02:24:30;;;;;;;1.38;0.90;;;;;;;;;;5018734;28;20049;-48
2021/09/13 02:26:55;;;;;;;1.40;1.20;;;;;;;;;;5018627;28;20556;-48
2021/09/13 02:29:21;;;;;;;2.83;1.77;;;;;;;;;;5021234;28;20026;-48
2021/09/13 02:31:46;;;;;;;2.50;1.52;;;;;;;;;;5019080;28;20025;-45
2021/09/13 02:34:11;;;;;;;4.60;1.77;;;;;;;;;;5014683;28;20787;-46
2021/09/13 02:36:37;;;;;;;1.50;1.05;;;;;;;;;;5019379;28;20021;-46
2021/09/13 02:39:02;;;;;;;2.92;1.45;;;;;;;;;;5018764;28;20503;-49
2021/09/13 02:41:28;;;;;;;1.27;0.90;;;;;;;;;;5019819;28;20014;-49
2021/09/13 02:43:53;;;;;;;2.80;1.88;;;;;;;;;;5018900;28;20341;-46
2021/09/13 02:46:20;;;;;;;2.88;1.80;;;;;;;;;;5020245;28;20056;-47
2021/09/13 02:48:45;;;;;;;3.05;1.73;;;;;;;;;;5018231;28;20030;-47
2021/09/13 02:51:11;;;;;;;2.80;1.38;;;;;;;;;;5017760;28;20541;-46
2021/09/13 02:53:36;;;;;;;4.55;2.03;;;;;;;;;;5017145;28;20022;-44
2021/09/13 02:56:01;;;;;;;5.05;2.45;;;;;;;;;;5020646;28;20036;-45
2021/09/13 02:58:27;;;;;;;2.65;1.83;;;;;;;;;;5018303;28;20172;-51
2021/09/13 03:00:52;;;;;;;2.30;1.45;;;;;;;;;;5018443;28;20024;-46
2021/09/13 03:03:17;;;;;;;4.15;1.88;;;;;;;;;;5016837;28;20026;-46
2021/09/13 03:05:43;;;;;;;2.45;1.63;;;;;;;;;;5016202;28;20516;-44
2021/09/13 03:08:08;;;;;;;3.80;1.83;;;;;;;;;;5015116;28;20028;-46
2021/09/13 03:10:33;;;;;;;1.20;0.88;;;;;;;;;;5016663;28;20021;-46
2021/09/13 03:12:59;;;;;;;2.80;2.03;;;;;;;;;;5017512;28;20117;-48
2021/09/13 03:15:24;;;;;;;2.53;1.42;;;;;;;;;;5014736;28;20171;-48
2021/09/13 03:17:49;;;;;;;2.65;1.52;;;;;;;;;;5019934;28;20390;-46
2021/09/13 03:20:14;;;;;;;2.50;1.40;;;;;;;;;;5018253;28;20029;-48
2021/09/13 03:22:40;;;;;;;2.38;1.58;;;;;;;;;;5018650;28;20053;-45
2021/09/13 03:25:05;;;;;;;3.65;1.92;;;;;;;;;;5014736;28;20084;-48
2021/09/13 03:27:31;;;;;;;1.85;1.40;;;;;;;;;;5016703;28;20036;-46
2021/09/13 03:29:56;;;;;;;3.95;1.83;;;;;;;;;;5012318;28;20388;-47
2021/09/13 03:32:22;;;;;;;1.85;1.33;;;;;;;;;;5021589;28;20025;-44
2021/09/13 03:34:47;;;;;;;4.15;1.98;;;;;;;;;;5013121;28;20478;-44
2021/09/13 03:37:12;;;;;;;4.60;1.25;;;;;;;;;;5015514;28;20439;-46
2021/09/13 03:39:38;;;;;;;3.20;1.85;;;;;;;;;;5017458;28;20029;-49
2021/09/13 03:42:04;;;;;;;2.03;1.83;;;;;;;;;;5014389;28;20116;-45
2021/09/13 03:44:29;;;;;;;4.18;2.13;;;;;;;;;;5014328;28;20033;-49
2021/09/13 03:46:55;;;;;;;1.98;1.70;;;;;;;;;;5016286;28;20374;-50
2021/09/13 03:49:21;;;;;;;3.35;2.20;;;;;;;;;;5014791;28;20742;-48
2021/09/13 03:51:46;;;;;;;3.53;1.85;;;;;;;;;;5012510;28;20519;-46
2021/09/13 03:54:11;;;;;;;8.85;1.58;;;;;;;;;;5016787;28;20029;-49
2021/09/13 03:56:37;;;;;;;2.97;1.60;;;;;;;;;;5016101;28;20767;-46
2021/09/13 03:59:02;;;;;;;4.63;1.75;;;;;;;;;;5013931;28;20516;-45
2021/09/13 04:01:27;;;;;;;3.53;2.47;;;;;;;;;;5017848;28;20033;-47
2021/09/13 04:03:55;;;;;;;3.55;1.48;;;;;;;;;;5017750;28;20580;-45
2021/09/13 04:11:55;;;;;;;3.40;1.83;;;;;;;;;;5047003;28;20090;-45
2021/09/13 04:14:22;;;;;;;2.50;1.63;;;;;;;;;;5021166;28;20049;-45
2021/09/13 04:16:47;;;;;;;1.95;1.48;;;;;;;;;;5015792;28;20037;-46
2021/09/13 04:19:13;;;;;;;1.50;1.20;;;;;;;;;;5016577;28;20422;-47
2021/09/13 04:21:38;;;;;;;3.65;2.63;;;;;;;;;;5014568;28;20516;-48
2021/09/13 04:24:04;;;;;;;3.03;1.77;;;;;;;;;;5017638;28;20025;-45
2021/09/13 04:26:29;;;;;;;2.33;1.27;;;;;;;;;;5016449;28;20037;-45
2021/09/13 04:28:54;;;;;;;3.22;1.70;;;;;;;;;;5017305;28;20503;-44
2021/09/13 04:31:20;;;;;;;2.83;1.35;;;;;;;;;;5012296;28;20037;-48
2021/09/13 04:33:45;;;;;;;3.10;1.63;;;;;;;;;;5012701;28;20484;-49
2021/09/13 04:36:10;;;;;;;2.38;1.50;;;;;;;;;;5016578;28;20037;-49
2021/09/13 04:38:36;;;;;;;6.13;1.58;;;;;;;;;;5018471;28;20525;-47
2021/09/13 04:41:01;;;;;;;2.40;1.63;;;;;;;;;;5016144;28;20441;-47
2021/09/13 04:43:26;;;;;;;2.15;1.02;;;;;;;;;;5016275;28;20080;-47
2021/09/13 04:45:52;;;;;;;2.63;1.75;;;;;;;;;;5012198;28;20026;-48
2021/09/13 04:48:17;;;;;;;1.90;1.42;;;;;;;;;;5011766;28;20021;-46
2021/09/13 04:50:42;;;;;;;2.10;1.83;;;;;;;;;;5013558;28;20022;-46
2021/09/13 04:53:08;;;;;;;3.22;1.92;;;;;;;;;;5021014;28;20021;-47
2021/09/13 04:55:35;;;;;;;3.08;2.08;;;;;;;;;;5011328;28;20022;-46
2021/09/13 04:58:00;;;;;;;2.75;1.67;;;;;;;;;;5017724;28;20021;-47
2021/09/13 05:00:25;;;;;;;2.58;2.10;;;;;;;;;;5010057;28;20036;-45
2021/09/13 05:02:51;;;;;;;2.97;2.17;;;;;;;;;;5012989;28;20030;-46
2021/09/13 05:05:16;;;;;;;3.00;1.88;;;;;;;;;;5015376;28;20081;-48
2021/09/13 05:07:41;;;;;;;7.97;2.35;;;;;;;;;;5013493;28;20026;-45
2021/09/13 05:10:07;;;;;;;3.25;1.67;;;;;;;;;;5013806;28;20109;-45
2021/09/13 05:12:32;;;;;;;3.63;1.83;;;;;;;;;;5013759;28;20084;-48
2021/09/13 05:14:57;;;;;;;3.00;1.98;;;;;;;;;;5014534;28;20084;-46
2021/09/13 05:17:23;;;;;;;4.70;2.30;;;;;;;;;;5014876;28;20030;-48
2021/09/13 05:19:48;;;;;;;3.35;2.05;;;;;;;;;;5016948;28;20148;-46
2021/09/13 05:22:13;;;;;;;3.17;1.85;;;;;;;;;;5015265;28;20033;-47
2021/09/13 05:24:38;;;;;;;3.53;2.38;;;;;;;;;;5014532;28;20030;-47
2021/09/13 05:27:04;;;;;;;3.47;2.63;;;;;;;;;;5012314;28;20026;-45
2021/09/13 05:29:29;;;;;;;2.00;1.38;;;;;;;;;;5013804;28;20076;-47
2021/09/13 05:31:54;;;;;;;4.70;2.35;;;;;;;;;;5010918;28;20044;-45
2021/09/13 05:34:20;;;;;;;2.67;1.88;;;;;;;;;;5012349;28;20165;-49
2021/09/13 05:36:45;;;;;;;3.88;2.53;;;;;;;;;;5011533;28;20117;-45
2021/09/13 05:39:10;;;;;;;2.55;2.22;;;;;;;;;;5015143;28;20033;-48
2021/09/13 05:41:36;;;;;;;2.65;1.60;;;;;;;;;;5017318;28;20097;-49
2021/09/13 05:44:01;;;;;;;2.85;2.38;;;;;;;;;;5015505;28;20473;-46
2021/09/13 05:46:26;;;;;;;2.33;1.70;;;;;;;;;;5015216;28;20473;-48
2021/09/13 05:48:52;;;;;;;3.42;2.42;;;;;;;;;;5013440;28;20124;-46
2021/09/13 05:51:17;;;;;;;4.43;2.70;;;;;;;;;;5013983;28;20108;-46
2021/09/13 05:53:42;;;;;;;7.40;2.38;;;;;;;;;;5014358;28;20053;-46
2021/09/13 05:56:07;;;;;;;2.85;2.33;;;;;;;;;;5015919;28;20025;-47
2021/09/13 05:58:34;;;;;;;3.38;2.28;;;;;;;;;;5020311;28;20488;-49
2021/09/13 06:00:59;;;;;;;5.53;2.92;;;;;;;;;;5017594;28;20110;-46
2021/09/13 06:03:24;;;;;;;10.07;4.38;;;;;;;;;;5020542;28;20116;-44
2021/09/13 06:05:50;;;;;;;3.75;2.97;;;;;;;;;;5015872;28;20040;-49
2021/09/13 06:08:15;;;;;;;3.58;3.10;;;;;;;;;;5018944;28;20025;-47
2021/09/13 06:10:40;;;;;;;3.40;3.10;;;;;;;;;;5015309;28;20120;-48
2021/09/13 06:13:11;;;;;;;3.65;2.90;;;;;;;;;;5019722;28;20026;-50
2021/09/13 06:15:36;;;;;;;9.57;4.25;;;;;;;;;;5019007;28;20512;-49
2021/09/13 06:18:01;;;;;;;7.30;4.07;;;;;;;;;;5017005;28;20030;-48
2021/09/13 06:20:27;;;;;;;5.75;4.68;;;;;;;;;;5007023;28;20020;-50
2021/09/13 06:22:52;;;;;;;11.05;7.85;;;;;;;;;;5018677;28;20548;-49
2021/09/13 06:25:18;;;;;;;5.20;4.32;;;;;;;;;;5019134;28;20052;-48
2021/09/13 06:27:43;;;;;;;8.13;5.22;;;;;;;;;;5019824;28;20501;-49
2021/09/13 06:30:09;;;;;;;8.25;6.45;;;;;;;;;;5021229;28;20495;-49
2021/09/13 06:32:34;;;;;;;15.23;8.02;;;;;;;;;;5020108;28;20026;-48
2021/09/13 06:35:00;;;;;;;9.75;6.57;;;;;;;;;;5018085;28;20029;-51
2021/09/13 06:37:25;;;;;;;11.80;7.38;;;;;;;;;;5021560;28;20025;-49
2021/09/13 06:39:51;;;;;;;9.52;6.82;;;;;;;;;;5012633;28;20037;-51
2021/09/13 06:42:16;;;;;;;6.90;5.40;;;;;;;;;;5013059;28;20485;-51
2021/09/13 06:44:45;;;;;;;6.45;5.70;;;;;;;;;;5023141;28;20656;-49
2021/09/13 06:47:21;;;;;;;27.08;5.53;;;;;;;;;;5015134;28;20072;-50
2021/09/13 06:49:47;;;;;;;8.38;6.00;;;;;;;;;;5018957;28;20037;-48
2021/09/13 06:52:12;;;;;;;13.80;7.18;;;;;;;;;;5016168;28;20017;-46
2021/09/13 06:54:38;;;;;;;11.32;9.85;;;;;;;;;;5017564;28;20023;-48
2021/09/13 06:57:03;;;;;;;10.65;9.20;;;;;;;;;;5017930;28;20116;-49
2021/09/13 06:59:28;;;;;;;10.88;8.68;;;;;;;;;;5019695;28;20393;-49
2021/09/13 07:01:54;;;;;;;9.57;7.32;;;;;;;;;;5017008;28;20022;-49
2021/09/13 07:04:21;;;;;;;9.80;7.90;;;;;;;;;;5015794;28;20127;-48
2021/09/13 07:06:46;;;;;;;11.32;7.68;;;;;;;;;;5018119;28;20037;-45
2021/09/13 07:09:12;;;;;;;11.25;8.50;;;;;;;;;;5018377;28;20029;-45
2021/09/13 07:11:37;;;;;;;9.07;8.15;;;;;;;;;;5015382;28;20017;-48
2021/09/13 07:14:02;;;;;;;45.00;8.57;;;;;;;;;;5018577;28;20621;-54
2021/09/13 07:16:28;;;;;;;277.27;47.67;;;;;;;;;;5022973;28;20048;-51
2021/09/13 07:18:53;;;;;;;15.40;9.10;;;;;;;;;;5014100;28;20066;-52
2021/09/13 07:21:18;;;;;;;15.30;8.30;;;;;;;;;;5014408;28;20426;-55
2021/09/13 07:23:44;;;;;;;12.50;9.68;;;;;;;;;;5015895;28;20026;-57
2021/09/13 07:26:09;;;;;;;14.57;8.00;;;;;;;;;;5009456;28;20030;-55
2021/09/13 07:28:34;;;;;;;15.13;6.88;;;;;;;;;;5015831;28;20021;-57
2021/09/13 07:31:00;;;;;;;9.85;8.70;;;;;;;;;;5017130;28;20295;-51
2021/09/13 07:33:25;;;;;;;23.88;12.75;;;;;;;;;;5010522;28;20397;-47
2021/09/13 07:35:50;;;;;;;20.40;12.57;;;;;;;;;;5015235;28;20030;-47
2021/09/13 07:38:16;;;;;;;20.27;12.05;;;;;;;;;;5012576;28;20105;-47
2021/09/13 07:40:42;;;;;;;13.75;11.60;;;;;;;;;;5010791;28;20604;-51
2021/09/13 07:43:08;;;;;;;40.60;13.40;;;;;;;;;;5008143;28;20441;-49
2021/09/13 07:45:34;;;;;;;24.35;13.85;;;;;;;;;;5012495;28;20059;-59
2021/09/13 07:47:59;;;;;;;20.40;11.35;;;;;;;;;;5012748;28;20037;-62
2021/09/13 07:50:25;;;;;;;25.40;13.40;;;;;;;;;;5016912;28;20037;-58
2021/09/13 07:52:50;;;;;;;21.58;10.95;;;;;;;;;;5012803;28;20540;-58
2021/09/13 07:55:15;;;;;;;22.88;14.48;;;;;;;;;;5011567;28;20068;-58
2021/09/13 07:57:42;;;;;;;19.60;10.20;;;;;;;;;;5011058;28;20063;-58
2021/09/13 08:00:08;;;;;;;23.63;10.00;;;;;;;;;;5011078;28;20101;-60
2021/09/13 08:02:33;;;;;;;22.05;14.40;;;;;;;;;;5011780;28;20053;-61
2021/09/13 08:04:59;;;;;;;18.25;12.93;;;;;;;;;;5013184;28;20061;-58
2021/09/13 08:07:25;;;;;;;13.32;8.48;;;;;;;;;;5010609;28;20029;-58
2021/09/13 08:09:50;;;;;;;11.32;9.18;;;;;;;;;;5020947;28;20504;-57
2021/09/13 08:12:15;;;;;;;9.23;7.65;;;;;;;;;;5022260;28;20022;-57
2021/09/13 08:14:41;;;;;;;12.40;8.07;;;;;;;;;;5016407;28;20029;-57
2021/09/13 08:17:06;;;;;;;20.23;9.75;;;;;;;;;;5014948;28;20517;-57
2021/09/13 08:19:31;;;;;;;13.13;6.47;;;;;;;;;;5014910;28;20049;-58
2021/09/13 08:21:57;;;;;;;8.82;6.05;;;;;;;;;;5011473;28;20817;-58
2021/09/13 08:24:22;;;;;;;14.27;6.47;;;;;;;;;;5015723;28;20030;-58
2021/09/13 08:26:47;;;;;;;8.18;4.47;;;;;;;;;;5011299;28;20025;-58
2021/09/13 08:29:17;;;;;;;8.25;3.97;;;;;;;;;;5012948;28;20026;-59
2021/09/13 08:31:42;;;;;;;6.47;2.85;;;;;;;;;;5015227;28;20497;-59
2021/09/13 08:34:08;;;;;;;9.00;7.05;;;;;;;;;;5015401;28;20635;-58
2021/09/13 08:36:33;;;;;;;11.80;5.28;;;;;;;;;;5014852;28;20453;-59
2021/09/13 08:38:58;;;;;;;4.22;3.83;;;;;;;;;;5013306;28;20032;-59
2021/09/13 08:41:24;;;;;;;4.65;3.65;;;;;;;;;;5015047;28;20025;-58
2021/09/13 08:43:49;;;;;;;11.88;7.45;;;;;;;;;;5007998;28;20428;-58
2021/09/13 08:49:09;;;;;;;4.80;3.58;;;;;;;;;;5035881;28;20129;-59
2021/09/13 08:51:35;;;;;;;4.28;2.75;;;;;;;;;;5017083;28;20580;-58
2021/09/13 08:54:07;;;;;;;4.43;3.47;;;;;;;;;;5017305;28;20108;-59
2021/09/13 08:56:42;;;;;;;4.65;2.88;;;;;;;;;;5015527;28;20045;-59
2021/09/13 08:59:11;;;;;;;5.75;5.05;;;;;;;;;;5009733;28;20699;-61
2021/09/13 09:01:37;;;;;;;3.58;2.72;;;;;;;;;;5015986;28;20134;-59
2021/09/13 09:04:03;;;;;;;3.60;2.72;;;;;;;;;;5015068;28;20071;-60
2021/09/13 09:06:36;;;;;;;1.75;1.20;;;;;;;;;;5012860;28;20025;-59
2021/09/13 09:09:11;;;;;;;1.98;1.45;;;;;;;;;;5010682;28;20041;-59
2021/09/13 09:12:01;;;;;;;1.48;0.80;;;;;;;;;;5009373;28;20028;-59
2021/09/13 09:14:38;;;;;;;9.85;2.17;;;;;;;;;;5007944;28;20516;-59
2021/09/13 09:17:09;;;;;;;15.75;3.72;;;;;;;;;;5014355;28;20021;-59
2021/09/13 09:19:35;;;;;;;14.80;2.53;;;;;;;;;;5016095;28;20056;-60
2021/09/13 09:22:21;;;;;;;3.75;1.63;;;;;;;;;;5018403;28;20068;-60
2021/09/13 09:24:48;;;;;;;15.32;4.85;;;;;;;;;;5012800;28;20030;-59
2021/09/13 09:27:13;;;;;;;21.17;3.03;;;;;;;;;;5015368;28;20022;-59
2021/09/13 09:29:38;;;;;;;6.18;2.72;;;;;;;;;;5013691;28;20945;-59
2021/09/13 09:32:04;;;;;;;10.77;2.55;;;;;;;;;;5017684;28;20096;-59
2021/09/13 09:34:33;;;;;;;4.13;1.95;;;;;;;;;;5018103;28;20040;-59
2021/09/13 09:36:58;;;;;;;3.00;1.70;;;;;;;;;;5012445;28;20482;-59
2021/09/13 09:39:29;;;;;;;5.63;2.80;;;;;;;;;;5020456;28;20041;-59
2021/09/13 09:41:56;;;;;;;5.95;2.53;;;;;;;;;;5018197;28;20026;-58
2021/09/13 09:44:22;;;;;;;11.60;1.98;;;;;;;;;;5020164;28;20025;-59
2021/09/13 09:46:47;;;;;;;8.52;1.85;;;;;;;;;;5023757;28;20137;-59
2021/09/13 09:49:17;;;;;;;1.13;0.82;;;;;;;;;;5017713;28;20072;-59
2021/09/13 09:51:44;;;;;;;2.70;1.77;;;;;;;;;;5020571;28;20532;-59
2021/09/13 09:54:14;;;;;;;1.40;1.10;;;;;;;;;;5016220;28;20022;-60
2021/09/13 09:56:40;;;;;;;5.00;2.15;;;;;;;;;;5019622;28;20118;-60
2021/09/13 09:59:07;;;;;;;5.25;1.90;;;;;;;;;;5021326;28;20017;-60
2021/09/13 10:01:42;;;;;;;3.72;2.10;;;;;;;;;;5023261;28;20033;-60
2021/09/13 10:04:15;;;;;;;2.33;1.58;;;;;;;;;;5024275;28;20120;-60
2021/09/13 10:06:41;;;;;;;2.33;1.73;;;;;;;;;;5016506;28;20018;-59
2021/09/13 10:09:07;;;;;;;3.20;1.85;;;;;;;;;;5017651;28;20089;-60
2021/09/13 10:11:33;;;;;;;2.40;1.77;;;;;;;;;;5012779;28;20026;-57
2021/09/13 10:13:58;;;;;;;1.40;1.00;;;;;;;;;;5021879;28;20022;-57
2021/09/13 10:16:24;;;;;;;2.17;1.38;;;;;;;;;;5017881;28;20021;-58
2021/09/13 10:18:49;;;;;;;2.60;1.98;;;;;;;;;;5022381;28;20014;-57
2021/09/13 10:21:15;;;;;;;0.93;0.47;;;;;;;;;;5024919;28;20064;-57
2021/09/13 10:23:41;;;;;;;8.50;2.53;;;;;;;;;;5018198;28;20049;-57
2021/09/13 10:26:06;;;;;;;4.40;2.78;;;;;;;;;;5020445;28;20010;-57
2021/09/13 10:28:31;;;;;;;4.22;1.40;;;;;;;;;;5016346;28;20053;-57
2021/09/13 10:30:57;;;;;;;1.98;1.10;;;;;;;;;;5013996;28;20025;-57
2021/09/13 10:33:22;;;;;;;1.67;0.98;;;;;;;;;;5014765;28;20014;-57
2021/09/13 10:35:58;;;;;;;4.00;2.28;;;;;;;;;;5011430;28;20056;-56
2021/09/13 10:38:41;;;;;;;3.85;1.02;;;;;;;;;;5018791;28;20030;-57
2021/09/13 10:41:07;;;;;;;2.92;1.45;;;;;;;;;;5020405;28;20053;-57
2021/09/13 10:43:32;;;;;;;5.72;2.97;;;;;;;;;;5017957;28;20049;-57
2021/09/13 10:45:57;;;;;;;3.78;2.25;;;;;;;;;;5017698;28;20107;-57
2021/09/13 10:48:23;;;;;;;1.67;1.25;;;;;;;;;;5019935;28;20029;-57
2021/09/13 10:50:50;;;;;;;6.15;1.70;;;;;;;;;;5023913;28;20037;-57
2021/09/13 10:53:18;;;;;;;1.35;0.93;;;;;;;;;;5021648;28;20024;-57
2021/09/13 10:55:45;;;;;;;1.33;0.70;;;;;;;;;;5019012;28;20037;-57
2021/09/13 10:58:12;;;;;;;1.90;1.20;;;;;;;;;;5014573;28;20022;-56
2021/09/13 11:00:37;;;;;;;1.40;0.77;;;;;;;;;;5018587;28;20596;-56
2021/09/13 11:03:18;;;;;;;2.95;2.38;;;;;;;;;;5004908;28;20489;-55
2021/09/13 11:05:43;;;;;;;5.35;1.33;;;;;;;;;;5010275;28;20140;-56
2021/09/13 11:08:27;;;;;;;2.47;1.25;;;;;;;;;;5016003;28;20025;-57
2021/09/13 11:10:52;;;;;;;4.70;3.38;;;;;;;;;;5015457;28;20017;-56
2021/09/13 11:13:17;;;;;;;1.95;1.35;;;;;;;;;;5020908;28;20033;-56
2021/09/13 11:15:50;;;;;;;4.93;1.85;;;;;;;;;;5013826;28;20124;-56
2021/09/13 11:18:34;;;;;;;1.70;1.15;;;;;;;;;;5016218;28;20525;-56
2021/09/13 11:21:15;;;;;;;3.53;1.25;;;;;;;;;;5011129;28;20109;-56
2021/09/13 11:23:41;;;;;;;4.70;1.65;;;;;;;;;;5011871;28;20033;-56
2021/09/13 11:26:06;;;;;;;3.55;0.95;;;;;;;;;;5020370;28;20396;-56
2021/09/13 11:28:31;;;;;;;2.78;1.50;;;;;;;;;;5013343;28;20031;-55
2021/09/13 11:30:57;;;;;;;2.03;1.35;;;;;;;;;;5019461;28;20792;-56
2021/09/13 11:33:22;;;;;;;1.08;0.68;;;;;;;;;;5015887;28;20022;-56
2021/09/13 11:35:53;;;;;;;1.98;1.17;;;;;;;;;;5015248;28;20574;-55
2021/09/13 11:38:18;;;;;;;1.45;0.77;;;;;;;;;;5020227;28;20025;-57
2021/09/13 11:40:44;;;;;;;1.30;1.20;;;;;;;;;;5043103;28;20040;-56
2021/09/13 11:43:09;;;;;;;2.08;0.82;;;;;;;;;;5006314;28;20036;-56
2021/09/13 11:45:34;;;;;;;2.17;1.63;;;;;;;;;;5014452;28;20032;-57
2021/09/13 11:48:06;;;;;;;4.30;2.13;;;;;;;;;;5015604;28;20541;-56
2021/09/13 11:50:32;;;;;;;0.55;0.35;;;;;;;;;;5011194;28;20374;-56
2021/09/13 11:52:57;;;;;;;1.45;1.23;;;;;;;;;;5014487;28;20072;-57
2021/09/13 11:55:24;;;;;;;1.67;1.10;;;;;;;;;;5015957;28;20532;-56
2021/09/13 11:58:00;;;;;;;0.95;0.80;;;;;;;;;;5014801;28;20022;-54
2021/09/13 12:00:27;;;;;;;2.53;1.45;;;;;;;;;;5012093;28;20436;-56
2021/09/13 12:02:55;;;;;;;3.13;2.15;;;;;;;;;;5010398;28;20029;-55
2021/09/13 12:05:25;;;;;;;1.67;1.23;;;;;;;;;;5014281;28;20482;-57
2021/09/13 12:07:52;;;;;;;4.10;2.30;;;;;;;;;;5010039;28;20037;-56
2021/09/13 12:10:18;;;;;;;5.03;1.48;;;;;;;;;;5018334;28;20282;-55
2021/09/13 12:12:46;;;;;;;13.00;0.98;;;;;;;;;;5010970;28;20026;-57
2021/09/13 12:15:12;;;;;;;1.80;1.23;;;;;;;;;;5013921;28;20033;-56
2021/09/13 12:17:39;;;;;;;4.22;1.95;;;;;;;;;;5007729;28;20027;-57
2021/09/13 12:20:12;;;;;;;1.38;1.27;;;;;;;;;;5007743;28;20120;-55
2021/09/13 12:22:38;;;;;;;7.45;2.38;;;;;;;;;;5015605;28;20397;-56
2021/09/13 12:25:10;;;;;;;5.00;3.30;;;;;;;;;;5018342;28;20025;-53
2021/09/13 12:27:40;;;;;;;5.15;2.65;;;;;;;;;;5018311;28;20481;-56
2021/09/13 12:30:07;;;;;;;19.57;2.03;;;;;;;;;;5015103;28;20025;-56
2021/09/13 12:32:34;;;;;;;3.17;1.98;;;;;;;;;;5013961;28;20093;-56
2021/09/13 12:35:06;;;;;;;9.02;2.15;;;;;;;;;;5022005;28;20021;-50
2021/09/13 12:37:33;;;;;;;4.75;1.70;;;;;;;;;;5010515;28;20971;-44
2021/09/13 12:40:17;;;;;;;6.00;2.55;;;;;;;;;;5016244;28;20800;-42
2021/09/13 12:42:55;;;;;;;2.28;1.55;;;;;;;;;;5013195;28;20026;-51
2021/09/13 12:45:21;;;;;;;4.00;1.90;;;;;;;;;;5019945;28;20034;-45
2021/09/13 12:47:54;;;;;;;9.80;2.20;;;;;;;;;;5011441;28;20133;-42
2021/09/13 12:50:35;;;;;;;2.88;2.08;;;;;;;;;;5013356;28;20034;-42
2021/09/13 12:53:04;;;;;;;8.73;1.92;;;;;;;;;;5017987;28;20085;-50
2021/09/13 12:55:31;;;;;;;10.32;2.20;;;;;;;;;;5013413;28;20025;-57
2021/09/13 12:58:23;;;;;;;1.02;0.68;;;;;;;;;;5011427;28;20111;-54
2021/09/13 13:00:49;;;;;;;1.15;0.90;;;;;;;;;;5011127;28;20017;-55
2021/09/13 13:03:14;;;;;;;3.25;1.15;;;;;;;;;;5012805;28;20528;-57
2021/09/13 13:05:42;;;;;;;2.90;1.75;;;;;;;;;;5011230;28;20395;-54
2021/09/13 13:08:07;;;;;;;13.55;6.43;;;;;;;;;;5011459;28;20370;-58
2021/09/13 13:10:33;;;;;;;2.80;2.25;;;;;;;;;;5014393;28;20087;-58
2021/09/13 13:12:59;;;;;;;2.90;1.73;;;;;;;;;;5012951;28;20018;-57
2021/09/13 13:15:24;;;;;;;13.23;7.07;;;;;;;;;;5010130;28;20037;-56
2021/09/13 13:17:50;;;;;;;7.70;4.05;;;;;;;;;;5007520;28;20033;-60
2021/09/13 13:20:17;;;;;;;7.22;3.10;;;;;;;;;;5010626;28;20530;-49
2021/09/13 13:22:43;;;;;;;3.42;2.20;;;;;;;;;;5010346;28;20037;-56
2021/09/13 13:25:08;;;;;;;24.00;4.13;;;;;;;;;;5008138;28;20025;-57
2021/09/13 13:27:33;;;;;;;4.40;2.72;;;;;;;;;;5014484;28;20033;-57
2021/09/13 13:30:00;;;;;;;3.60;2.97;;;;;;;;;;5012603;28;20021;-57
2021/09/13 13:32:25;;;;;;;4.00;3.10;;;;;;;;;;5014862;28;20783;-57
2021/09/13 13:34:51;;;;;;;4.03;1.77;;;;;;;;;;5017554;28;20026;-57
2021/09/13 13:37:16;;;;;;;2.50;1.90;;;;;;;;;;5015067;28;20063;-57
2021/09/13 13:39:41;;;;;;;2.78;1.88;;;;;;;;;;5010018;28;20773;-57
2021/09/13 13:42:07;;;;;;;4.22;2.08;;;;;;;;;;5009532;28;20437;-57
2021/09/13 13:44:32;;;;;;;3.10;1.83;;;;;;;;;;5007808;28;20501;-57
2021/09/13 13:46:58;;;;;;;2.80;1.63;;;;;;;;;;5009662;28;20044;-57
2021/09/13 13:49:23;;;;;;;3.47;1.88;;;;;;;;;;5015644;28;20063;-57
2021/09/13 13:51:48;;;;;;;9.07;2.28;;;;;;;;;;5016652;28;20022;-57
2021/09/13 13:54:14;;;;;;;2.13;1.92;;;;;;;;;;5016097;28;20026;-57
2021/09/13 13:56:39;;;;;;;4.57;2.30;;;;;;;;;;5011929;28;20434;-57
2021/09/13 13:59:04;;;;;;;2.78;1.90;;;;;;;;;;5012436;28;20030;-57
2021/09/13 14:01:31;;;;;;;14.32;2.20;;;;;;;;;;5013759;28;20033;-57
2021/09/13 14:03:56;;;;;;;5.60;2.63;;;;;;;;;;5011633;28;20639;-56
2021/09/13 14:06:22;;;;;;;3.55;2.22;;;;;;;;;;5008682;28;20053;-57
2021/09/13 14:08:47;;;;;;;3.38;2.08;;;;;;;;;;5011276;28;20397;-56
2021/09/13 14:11:12;;;;;;;3.03;2.17;;;;;;;;;;5008674;28;20053;-57
2021/09/13 14:13:38;;;;;;;4.85;2.45;;;;;;;;;;5014275;28;20010;-55
2021/09/13 14:16:03;;;;;;;3.75;1.40;;;;;;;;;;5011368;28;20018;-57
2021/09/13 14:18:29;;;;;;;4.78;2.60;;;;;;;;;;5014193;28;20501;-57
2021/09/13 14:20:54;;;;;;;2.97;2.50;;;;;;;;;;5014433;28;20504;-56
2021/09/13 14:23:20;;;;;;;5.10;4.60;;;;;;;;;;5013985;28;20108;-57
2021/09/13 14:25:45;;;;;;;10.43;2.67;;;;;;;;;;5015211;28;20029;-54
2021/09/13 14:28:10;;;;;;;4.32;3.15;;;;;;;;;;5018197;28;20507;-53
2021/09/13 14:30:36;;;;;;;3.63;2.72;;;;;;;;;;5018702;28;20041;-53
2021/09/13 14:33:02;;;;;;;22.95;2.90;;;;;;;;;;5016182;28;20026;-53
2021/09/13 14:35:27;;;;;;;3.03;2.45;;;;;;;;;;5016342;28;20029;-54
2021/09/13 14:37:53;;;;;;;2.80;1.92;;;;;;;;;;5015104;28;20024;-56
2021/09/13 14:40:19;;;;;;;3.25;2.28;;;;;;;;;;5019810;28;20060;-55
2021/09/13 14:42:44;;;;;;;2.95;2.42;;;;;;;;;;5007674;28;20034;-55
2021/09/13 14:45:10;;;;;;;5.53;3.28;;;;;;;;;;5018378;28;20026;-54